createdAt,value
2022-11-17T00:02:21.600Z,98905.38
2022-11-17T00:04:48.445Z,98901.06
2022-11-17T00:07:15.256Z,98892.03
2022-11-17T00:09:41.991Z,98886.09
2022-11-17T00:12:32.575Z,98882.88
2022-11-17T00:15:00.181Z,98869.06
2022-11-17T00:17:27.535Z,98868.03
2022-11-17T00:20:13.097Z,98860.16
2022-11-17T00:22:39.734Z,98846.13
2022-11-17T00:25:06.804Z,98825.41
2022-11-17T00:27:33.624Z,98820.78
2022-11-17T00:30:00.265Z,98812.13
2022-11-17T00:32:45.305Z,98802.09
2022-11-17T00:35:12.161Z,98787.41
2022-11-17T00:38:03.323Z,98781.56
2022-11-17T00:40:30.692Z,98777.56
2022-11-17T00:42:57.529Z,98774.94
2022-11-17T00:45:24.264Z,98770.53
2022-11-17T00:47:51.078Z,98758.47
2022-11-17T00:50:17.904Z,98755.84
2022-11-17T00:52:44.555Z,98750.94
2022-11-17T00:55:11.436Z,98744.94
2022-11-17T00:57:38.299Z,98739.22
2022-11-17T01:00:05.680Z,98742.56
2022-11-17T01:02:32.511Z,98738.34
2022-11-17T01:04:59.317Z,98729.59
2022-11-17T01:07:26.205Z,98734.38
2022-11-17T01:09:52.903Z,98720.47
2022-11-17T01:12:19.736Z,98690.31
2022-11-17T01:14:46.694Z,98713.47
2022-11-17T01:17:13.539Z,98716.41
2022-11-17T01:19:40.186Z,98712.72
2022-11-17T01:22:07.023Z,98704.66
2022-11-17T01:24:33.679Z,98695.41
2022-11-17T01:27:00.332Z,98692.28
2022-11-17T01:29:26.950Z,98686.88
2022-11-17T01:31:53.615Z,98678.22
2022-11-17T01:34:20.579Z,98677.63
2022-11-17T01:37:05.968Z,98666.81
2022-11-17T01:39:32.886Z,98667.59
2022-11-17T01:42:04.512Z,98683.34
2022-11-17T01:44:54.611Z,98668.84
2022-11-17T01:47:48.291Z,98684.28
2022-11-17T01:50:17.807Z,98690.94
2022-11-17T01:52:45.080Z,98717.47
2022-11-17T01:55:12.782Z,98642.13
2022-11-17T01:57:47.430Z,98662.22
2022-11-17T02:00:14.823Z,98647.28
2022-11-17T02:02:44.368Z,98636.47
2022-11-17T02:05:29.959Z,98637.91
2022-11-17T02:08:03.170Z,98648.97
2022-11-17T02:10:31.959Z,98628.38
2022-11-17T02:13:01.186Z,98612.03
2022-11-17T02:15:31.151Z,98641.97
2022-11-17T02:17:59.245Z,98627.03
2022-11-17T02:20:59.905Z,98591.41
2022-11-17T02:24:14.670Z,98595.34
2022-11-17T02:26:56.825Z,98604.56
2022-11-17T02:29:52.965Z,98595.88
2022-11-17T02:32:33.011Z,98619.16
2022-11-17T02:35:16.379Z,98609.72
2022-11-17T02:38:19.569Z,98608.66
2022-11-17T02:41:04.385Z,98609.16
2022-11-17T02:44:02.362Z,98602.09
2022-11-17T02:46:37.210Z,98587.25
2022-11-17T02:49:14.805Z,98596.13
2022-11-17T02:51:43.892Z,98589.50
2022-11-17T02:54:13.046Z,98592.44
2022-11-17T02:56:43.517Z,98589.69
2022-11-17T02:59:16.106Z,98586.94
2022-11-17T03:01:58.777Z,98583.53
2022-11-17T03:04:44.366Z,98580.13
2022-11-17T03:07:22.740Z,98580.91
2022-11-17T03:10:10.295Z,98584.78
2022-11-17T03:13:00.342Z,98583.72
2022-11-17T03:15:49.842Z,98590.50
2022-11-17T03:18:53.458Z,98591.72
2022-11-17T03:21:48.177Z,98562.06
2022-11-17T03:24:31.327Z,98554.97
2022-11-17T03:27:09.058Z,98553.13
2022-11-17T03:29:43.024Z,98543.38
2022-11-17T03:32:11.716Z,98529.38
2022-11-17T03:34:45.737Z,98521.78
2022-11-17T03:37:18.704Z,98532.28
2022-11-17T03:39:52.885Z,98536.75
2022-11-17T03:42:30.557Z,98527.19
2022-11-17T03:45:06.497Z,98524.75
2022-11-17T03:47:35.548Z,98508.06
2022-11-17T03:50:02.137Z,98508.38
2022-11-17T03:52:30.737Z,98500.19
2022-11-17T03:54:57.834Z,98504.97
2022-11-17T03:57:37.899Z,98493.22
2022-11-17T04:00:08.696Z,98492.88
2022-11-17T04:02:35.908Z,98502.03
2022-11-17T04:05:06.059Z,98478.09
2022-11-17T04:07:42.155Z,98499.22
2022-11-17T04:10:15.296Z,98484.56
2022-11-17T04:13:01.239Z,98461.88
2022-11-17T04:15:47.739Z,98477.00
2022-11-17T04:18:15.428Z,98467.53
2022-11-17T04:20:42.742Z,98473.25
2022-11-17T04:23:14.589Z,98462.75
2022-11-17T04:26:10.517Z,98464.47
2022-11-17T04:28:41.831Z,98454.13
2022-11-17T04:31:19.649Z,98445.31
2022-11-17T04:33:51.596Z,98452.25
2022-11-17T04:36:21.151Z,98430.66
2022-11-17T04:38:54.016Z,98446.34
2022-11-17T04:41:41.691Z,98436.69
2022-11-17T04:44:11.396Z,98432.41
2022-11-17T04:46:39.570Z,98434.06
2022-11-17T04:49:07.367Z,98430.22
2022-11-17T04:51:35.244Z,98434.31
2022-11-17T04:54:04.155Z,98429.69
2022-11-17T04:56:31.344Z,98436.84
2022-11-17T04:58:58.327Z,98434.09
2022-11-17T05:01:27.482Z,98431.47
2022-11-17T05:03:56.886Z,98442.25
2022-11-17T05:06:26.670Z,98433.13
2022-11-17T05:08:55.791Z,98421.41
2022-11-17T05:11:43.394Z,98428.84
2022-11-17T05:14:11.933Z,98436.72
2022-11-17T05:16:57.399Z,98432.50
2022-11-17T05:19:26.912Z,98422.63
2022-11-17T05:21:53.768Z,98421.25
2022-11-17T05:24:20.948Z,98423.41
2022-11-17T05:26:49.305Z,98413.50
2022-11-17T05:29:19.306Z,98403.78
2022-11-17T05:31:47.000Z,98410.13
2022-11-17T05:34:15.764Z,98416.63
2022-11-17T05:36:43.491Z,98413.50
2022-11-17T05:39:10.551Z,98405.81
2022-11-17T05:41:37.372Z,98423.72
2022-11-17T05:44:05.251Z,98414.75
2022-11-17T05:46:32.151Z,98420.00
2022-11-17T05:48:58.996Z,98421.88
2022-11-17T05:51:25.702Z,98424.78
2022-11-17T05:53:52.471Z,98412.91
2022-11-17T05:56:43.574Z,98435.44
2022-11-17T05:59:16.326Z,98430.97
2022-11-17T06:01:50.225Z,98438.38
2022-11-17T06:04:20.426Z,98435.13
2022-11-17T06:06:48.319Z,98461.09
2022-11-17T06:09:16.015Z,98469.44
2022-11-17T06:11:43.004Z,98462.34
2022-11-17T06:14:09.638Z,98463.44
2022-11-17T06:16:41.745Z,98461.88
2022-11-17T06:19:15.490Z,98457.84
2022-11-17T06:22:09.758Z,98455.22
2022-11-17T06:24:29.289Z,98449.97
2022-11-17T06:26:56.200Z,98451.38
2022-11-17T06:29:23.250Z,98451.38
2022-11-17T06:31:50.184Z,98451.38
2022-11-17T06:34:17.138Z,98445.34
2022-11-17T06:36:43.950Z,98441.97
2022-11-17T06:39:10.780Z,98446.41
2022-11-17T06:41:39.295Z,98441.66
2022-11-17T06:44:05.990Z,98441.78
2022-11-17T06:46:37.903Z,98446.91
2022-11-17T06:49:08.247Z,98449.72
2022-11-17T06:51:36.686Z,98458.34
2022-11-17T06:54:08.495Z,98452.50
2022-11-17T06:56:35.350Z,98457.44
2022-11-17T06:59:02.072Z,98456.81
2022-11-17T07:01:29.296Z,98465.16
2022-11-17T07:03:56.201Z,98465.00
2022-11-17T07:06:22.868Z,98471.97
2022-11-17T07:08:50.803Z,98479.09
2022-11-17T07:11:17.733Z,98483.09
2022-11-17T07:13:44.676Z,98481.41
2022-11-17T07:16:18.678Z,98488.97
2022-11-17T07:18:48.842Z,98487.28
2022-11-17T07:21:15.559Z,98489.31
2022-11-17T07:23:44.692Z,98498.75
2022-11-17T07:26:12.065Z,98493.94
2022-11-17T07:28:39.153Z,98498.13
2022-11-17T07:31:08.233Z,98501.25
2022-11-17T07:33:35.812Z,98507.59
2022-11-17T07:36:11.970Z,98512.53
2022-11-17T07:38:40.205Z,98515.16
2022-11-17T07:41:09.649Z,98522.00
2022-11-17T07:43:36.880Z,98514.72
2022-11-17T07:46:10.254Z,98523.84
2022-11-17T07:48:37.599Z,98527.69
2022-11-17T07:51:05.273Z,98525.66
2022-11-17T07:57:33.841Z,98536.66
2022-11-17T08:00:00.720Z,98547.31
2022-11-17T08:02:28.410Z,98540.97
2022-11-17T08:04:55.245Z,98552.75
2022-11-17T08:07:22.538Z,98558.16
2022-11-17T08:09:49.261Z,98561.41
2022-11-17T08:12:16.103Z,98554.63
2022-11-17T08:14:42.759Z,98570.69
2022-11-17T08:17:09.547Z,98559.88
2022-11-17T08:19:36.260Z,98574.22
2022-11-17T08:22:02.917Z,98575.13
2022-11-17T08:24:29.710Z,98574.00
2022-11-17T08:26:56.366Z,98575.09
2022-11-17T08:29:24.292Z,98585.09
2022-11-17T08:31:51.147Z,98577.53
2022-11-17T08:34:17.934Z,98589.41
2022-11-17T08:36:44.644Z,98584.34
2022-11-17T08:39:11.396Z,98585.41
2022-11-17T08:41:38.035Z,98587.59
2022-11-17T08:44:05.160Z,98592.66
2022-11-17T08:46:31.881Z,98588.63
2022-11-17T08:49:00.398Z,98597.41
2022-11-17T08:51:28.816Z,98599.44
2022-11-17T08:53:55.812Z,98599.44
2022-11-17T08:56:22.706Z,98600.84
2022-11-17T08:58:49.411Z,98598.41
2022-11-17T09:01:19.891Z,98600.38
2022-11-17T09:03:47.622Z,98607.03
2022-11-17T09:06:16.103Z,98607.25
2022-11-17T09:08:46.118Z,98603.88
2022-11-17T09:11:14.491Z,98613.03
2022-11-17T09:13:42.079Z,98607.44
2022-11-17T09:16:11.233Z,98622.78
2022-11-17T09:18:39.723Z,98618.25
2022-11-17T09:21:10.584Z,98624.13
2022-11-17T09:23:37.695Z,98629.06
2022-11-17T09:26:07.783Z,98624.38
2022-11-17T09:28:34.830Z,98627.44
2022-11-17T09:31:13.871Z,98631.16
2022-11-17T09:33:40.991Z,98634.22
2022-11-17T09:36:08.163Z,98651.69
2022-11-17T09:38:37.089Z,98641.31
2022-11-17T09:41:15.879Z,98643.25
2022-11-17T09:44:02.409Z,98647.50
2022-11-17T09:46:51.082Z,98646.38
2022-11-17T09:49:28.731Z,98660.69
2022-11-17T09:52:03.348Z,98655.25
2022-11-17T09:54:43.608Z,98662.22
2022-11-17T09:57:30.949Z,98660.41
2022-11-17T10:00:15.560Z,98668.75
2022-11-17T10:02:43.443Z,98666.16
2022-11-17T10:05:33.267Z,98660.59
2022-11-17T10:08:08.552Z,98670.38
2022-11-17T10:10:42.409Z,98671.63
2022-11-17T10:13:27.918Z,98667.34
2022-11-17T10:16:05.745Z,98674.75
2022-11-17T10:18:38.276Z,98676.13
2022-11-17T10:21:08.032Z,98682.53
2022-11-17T10:23:44.584Z,98682.22
2022-11-17T10:26:15.689Z,98682.91
2022-11-17T10:28:42.991Z,98682.25
2022-11-17T10:31:19.737Z,98674.19
2022-11-17T10:33:49.602Z,98672.44
2022-11-17T10:36:25.890Z,98688.00
2022-11-17T10:38:56.330Z,98689.44
2022-11-17T10:41:29.501Z,98685.75
2022-11-17T10:44:21.502Z,98688.59
2022-11-17T10:47:02.315Z,98688.00
2022-11-17T10:49:37.860Z,98690.25
2022-11-17T10:52:18.511Z,98701.25
2022-11-17T10:54:45.302Z,98702.97
2022-11-17T10:57:22.192Z,98709.94
2022-11-17T10:59:56.908Z,98699.91
2022-11-17T11:02:30.093Z,98721.47
2022-11-17T11:05:08.180Z,98709.25
2022-11-17T11:07:35.222Z,98716.22
2022-11-17T11:10:17.823Z,98714.84
2022-11-17T11:12:59.856Z,98711.75
2022-11-17T11:15:36.703Z,98716.53
2022-11-17T11:18:17.931Z,98720.00
2022-11-17T11:21:13.496Z,98725.56
2022-11-17T11:23:57.301Z,98726.03
2022-11-17T11:26:48.340Z,98733.34
2022-11-17T11:29:42.812Z,98731.31
2022-11-17T11:32:18.590Z,98732.72
2022-11-17T11:35:03.913Z,98743.34
2022-11-17T11:37:43.820Z,98742.09
2022-11-17T11:40:29.160Z,98751.75
2022-11-17T11:42:58.597Z,98739.19
2022-11-17T11:46:02.665Z,98752.19
2022-11-17T11:48:34.150Z,98754.19
2022-11-17T11:51:15.452Z,98754.00
2022-11-17T11:53:52.859Z,98750.59
2022-11-17T11:56:32.666Z,98751.38
2022-11-17T11:59:13.447Z,98747.88
2022-11-17T12:01:57.814Z,98758.50
2022-11-17T12:04:56.851Z,98760.38
2022-11-17T12:07:37.283Z,98761.81
2022-11-17T12:10:12.126Z,98761.34
2022-11-17T12:12:40.801Z,98768.47
2022-11-17T12:15:30.622Z,98760.53
2022-11-17T12:18:02.141Z,98767.25
2022-11-17T12:20:31.704Z,98770.81
2022-11-17T12:23:06.967Z,98768.34
2022-11-17T12:25:36.910Z,98778.75
2022-11-17T12:28:39.050Z,98770.53
2022-11-17T12:31:44.518Z,98777.97
2022-11-17T12:34:21.246Z,98779.09
2022-11-17T12:37:14.595Z,98779.69
2022-11-17T12:40:01.519Z,98783.88
2022-11-17T12:42:30.474Z,98780.19
2022-11-17T12:45:10.573Z,98780.78
2022-11-17T12:47:38.628Z,98787.44
2022-11-17T12:50:17.897Z,98786.66
2022-11-17T12:53:06.287Z,98797.06
2022-11-17T12:55:33.062Z,98792.09
2022-11-17T12:58:41.514Z,98800.31
2022-11-17T13:01:17.140Z,98801.25
2022-11-17T13:03:54.865Z,98784.19
2022-11-17T13:06:35.494Z,98799.53
2022-11-17T13:09:07.867Z,98795.81
2022-11-17T13:11:35.465Z,98792.56
2022-11-17T13:14:16.334Z,98806.81
2022-11-17T13:16:48.330Z,98805.88
2022-11-17T13:19:37.950Z,98806.81
2022-11-17T13:22:16.531Z,98809.59
2022-11-17T13:24:46.311Z,98804.94
2022-11-17T13:27:23.087Z,98805.44
2022-11-17T13:30:10.394Z,98796.44
2022-11-17T13:32:39.547Z,98806.81
2022-11-17T13:35:25.756Z,98807.91
2022-11-17T13:38:21.647Z,98808.06
2022-11-17T13:40:51.177Z,98811.00
2022-11-17T13:43:22.532Z,98816.56
2022-11-17T13:45:50.839Z,98820.63
2022-11-17T13:48:39.777Z,98825.56
2022-11-17T13:51:39.061Z,98821.84
2022-11-17T13:54:12.407Z,98829.28
2022-11-17T13:56:54.849Z,98835.34
2022-11-17T13:59:31.003Z,98827.75
2022-11-17T14:02:15.994Z,98821.72
2022-11-17T14:05:14.268Z,98826.81
2022-11-17T14:07:42.845Z,98825.56
2022-11-17T14:10:21.552Z,98825.13
2022-11-17T14:13:02.258Z,98837.34
2022-11-17T14:15:36.513Z,98836.88
2022-11-17T14:18:31.122Z,98829.91
2022-11-17T14:21:17.146Z,98833.91
2022-11-17T14:23:44.650Z,98832.66
2022-11-17T14:26:20.635Z,98843.97
2022-11-17T14:28:48.994Z,98840.25
2022-11-17T14:31:15.836Z,98838.84
2022-11-17T14:33:42.896Z,98840.53
2022-11-17T14:36:16.520Z,98848.28
2022-11-17T14:38:47.056Z,98845.66
2022-11-17T14:41:16.383Z,98846.72
2022-11-17T14:43:43.329Z,98854.47
2022-11-17T14:46:30.339Z,98853.84
2022-11-17T14:48:56.996Z,98854.16
2022-11-17T14:51:23.927Z,98852.88
2022-11-17T14:53:50.586Z,98862.03
2022-11-17T14:56:20.352Z,98856.94
2022-11-17T14:58:48.530Z,98864.50
2022-11-17T15:01:25.408Z,98866.38
2022-11-17T15:03:52.997Z,98864.81
2022-11-17T15:06:20.471Z,98875.22
2022-11-17T15:08:52.949Z,98872.25
2022-11-17T15:11:19.883Z,98872.22
2022-11-17T15:13:46.493Z,98879.19
2022-11-17T15:16:13.541Z,98870.81
2022-11-17T15:18:40.256Z,98884.09
2022-11-17T15:21:09.555Z,98883.63
2022-11-17T15:23:38.906Z,98886.75
2022-11-17T15:26:08.350Z,98887.94
2022-11-17T15:28:35.073Z,98892.44
2022-11-17T15:31:13.909Z,98901.84
2022-11-17T15:33:42.669Z,98898.59
2022-11-17T15:36:12.616Z,98904.81
2022-11-17T15:38:40.567Z,98900.97
2022-11-17T15:41:10.004Z,98913.47
2022-11-17T15:43:38.946Z,98907.00
2022-11-17T15:46:08.959Z,98916.38
2022-11-17T15:48:39.962Z,98915.31
2022-11-17T15:51:10.222Z,98914.97
2022-11-17T15:53:38.557Z,98917.25
2022-11-17T15:56:09.793Z,98921.22
2022-11-17T15:58:36.974Z,98919.00
2022-11-17T16:01:15.822Z,98918.81
2022-11-17T16:03:45.212Z,98925.75
2022-11-17T16:06:12.801Z,98925.09
2022-11-17T16:08:40.664Z,98927.84
2022-11-17T16:11:09.051Z,98917.94
2022-11-17T16:13:36.041Z,98931.97
2022-11-17T16:16:03.625Z,98929.88
2022-11-17T16:18:33.469Z,98926.75
2022-11-17T16:21:08.202Z,98930.69
2022-11-17T16:23:49.133Z,98931.78
2022-11-17T16:26:18.063Z,98941.63
2022-11-17T16:28:46.807Z,98937.03
2022-11-17T16:31:22.652Z,98948.50
2022-11-17T16:33:58.464Z,98954.47
2022-11-17T16:36:35.927Z,98962.34
2022-11-17T16:39:07.687Z,98956.09
2022-11-17T16:41:40.110Z,98963.13
2022-11-17T16:44:13.389Z,98966.81
2022-11-17T16:46:43.000Z,98963.22
2022-11-17T16:49:12.579Z,98971.47
2022-11-17T16:51:39.808Z,98976.44
2022-11-17T16:54:11.347Z,98968.28
2022-11-17T16:56:38.253Z,98963.69
2022-11-17T16:59:05.265Z,98969.63
2022-11-17T17:01:35.265Z,98973.19
2022-11-17T17:04:04.935Z,98969.13
2022-11-17T17:06:32.185Z,98980.84
2022-11-17T17:09:03.338Z,98975.44
2022-11-17T17:11:31.913Z,98979.91
2022-11-17T17:14:01.171Z,98974.38
2022-11-17T17:16:28.048Z,98982.06
2022-11-17T17:18:56.504Z,98993.03
2022-11-17T17:21:23.772Z,98994.41
2022-11-17T17:23:51.387Z,98994.88
2022-11-17T17:26:20.149Z,98996.56
2022-11-17T17:28:48.951Z,99001.41
2022-11-17T17:31:21.695Z,99000.22
2022-11-17T17:33:50.660Z,99002.69
2022-11-17T17:36:20.656Z,99001.75
2022-11-17T17:38:55.191Z,99009.28
2022-11-17T17:41:29.358Z,99007.25
2022-11-17T17:44:04.714Z,99016.81
2022-11-17T17:46:35.255Z,99018.44
2022-11-17T17:49:02.283Z,99022.00
2022-11-17T17:51:30.568Z,99027.44
2022-11-17T17:54:00.631Z,99027.50
2022-11-17T17:56:27.502Z,99031.69
2022-11-17T17:58:55.303Z,99034.81
2022-11-17T18:01:25.183Z,99039.66
2022-11-17T18:04:00.074Z,99041.13
2022-11-17T18:06:27.247Z,99046.50
2022-11-17T18:08:54.043Z,99046.50
2022-11-17T18:11:20.932Z,99052.81
2022-11-17T18:13:50.801Z,99058.28
2022-11-17T18:16:21.465Z,99063.16
2022-11-17T18:18:49.512Z,99068.41
2022-11-17T18:21:18.491Z,99066.28
2022-11-17T18:23:45.868Z,99060.44
2022-11-17T18:26:16.830Z,99061.44
2022-11-17T18:28:50.790Z,99065.41
2022-11-17T18:31:18.882Z,99061.94
2022-11-17T18:33:45.543Z,99065.16
2022-11-17T18:36:12.354Z,99066.69
2022-11-17T18:38:39.167Z,99071.28
2022-11-17T18:41:11.365Z,99077.31
2022-11-17T18:43:39.424Z,99079.66
2022-11-17T18:46:09.559Z,99082.44
2022-11-17T18:48:38.296Z,99078.97
2022-11-17T18:51:19.913Z,99083.50
2022-11-17T18:53:51.706Z,99084.69
2022-11-17T18:56:24.074Z,99089.16
2022-11-17T18:58:51.122Z,99094.38
2022-11-17T19:01:20.093Z,99089.28
2022-11-17T19:03:49.527Z,99098.38
2022-11-17T19:06:17.869Z,99090.16
2022-11-17T19:08:45.769Z,99089.81
2022-11-17T19:11:12.843Z,99086.19
2022-11-17T19:13:42.102Z,99086.06
2022-11-17T19:16:14.721Z,99095.47
2022-11-17T19:18:43.359Z,99104.34
2022-11-17T19:21:18.207Z,99106.38
2022-11-17T19:23:51.332Z,99108.50
2022-11-17T19:26:24.389Z,99120.78
2022-11-17T19:28:58.604Z,99128.13
2022-11-17T19:31:26.587Z,99127.75
2022-11-17T19:33:54.847Z,99137.53
2022-11-17T19:36:27.237Z,99145.56
2022-11-17T19:38:55.904Z,99143.91
2022-11-17T19:41:25.681Z,99149.50
2022-11-17T19:43:57.401Z,99158.47
2022-11-17T19:46:26.278Z,99152.59
2022-11-17T19:48:53.389Z,99157.91
2022-11-17T19:51:26.025Z,99159.34
2022-11-17T19:53:56.052Z,99168.31
2022-11-17T19:56:24.758Z,99169.13
2022-11-17T19:58:52.189Z,99168.03
2022-11-17T20:01:29.726Z,99177.53
2022-11-17T20:03:59.084Z,99176.25
2022-11-17T20:06:28.882Z,99179.19
2022-11-17T20:08:57.318Z,99173.63
2022-11-17T20:11:28.452Z,99172.34
2022-11-17T20:13:55.995Z,99183.41
2022-11-17T20:16:27.695Z,99185.53
2022-11-17T20:18:57.005Z,99190.53
2022-11-17T20:21:25.902Z,99191.31
2022-11-17T20:23:53.555Z,99199.97
2022-11-17T20:26:26.217Z,99198.44
2022-11-17T20:28:53.530Z,99199.75
2022-11-17T20:31:25.517Z,99205.31
2022-11-17T20:34:00.266Z,99206.06
2022-11-17T20:36:29.166Z,99203.91
2022-11-17T20:39:02.079Z,99208.13
2022-11-17T20:41:29.800Z,99209.97
2022-11-17T20:43:58.626Z,99212.31
2022-11-17T20:46:26.554Z,99219.91
2022-11-17T20:48:53.260Z,99221.78
2022-11-17T20:51:23.104Z,99224.75
2022-11-17T20:53:50.211Z,99231.06
2022-11-17T20:56:18.482Z,99233.69
2022-11-17T20:58:45.526Z,99240.22
2022-11-17T21:01:17.969Z,99239.19
2022-11-17T21:03:45.394Z,99233.41
2022-11-17T21:06:13.475Z,99247.56
2022-11-17T21:08:41.884Z,99242.06
2022-11-17T21:11:31.859Z,99251.81
2022-11-17T21:13:58.979Z,99245.03
2022-11-17T21:16:25.987Z,99248.19
2022-11-17T21:18:52.730Z,99250.28
2022-11-17T21:21:19.953Z,99254.72
2022-11-17T21:23:46.583Z,99252.09
2022-11-17T21:26:18.847Z,99254.44
2022-11-17T21:28:46.617Z,99257.31
2022-11-17T21:31:20.034Z,99263.59
2022-11-17T21:33:46.966Z,99257.31
2022-11-17T21:36:16.779Z,99260.50
2022-11-17T21:38:45.370Z,99260.50
2022-11-17T21:41:24.355Z,99273.28
2022-11-17T21:43:53.087Z,99269.63
2022-11-17T21:46:22.556Z,99274.88
2022-11-17T21:48:50.567Z,99281.19
2022-11-17T21:51:18.704Z,99285.13
2022-11-17T21:53:45.889Z,99277.53
2022-11-17T21:56:13.152Z,99283.53
2022-11-17T21:58:41.209Z,99286.41
2022-11-17T22:01:11.508Z,99279.88
2022-11-17T22:03:39.984Z,99281.72
2022-11-17T22:06:17.931Z,99284.84
2022-11-17T22:08:46.409Z,99285.91
2022-11-17T22:11:16.298Z,99283.28
2022-11-17T22:13:43.271Z,99286.13
2022-11-17T22:16:13.309Z,99284.34
2022-11-17T22:18:41.303Z,99299.75
2022-11-17T22:21:08.581Z,99300.03
2022-11-17T22:23:35.545Z,99303.44
2022-11-17T22:26:04.988Z,99295.31
2022-11-17T22:28:31.692Z,99314.94
2022-11-17T22:30:58.815Z,99310.00
2022-11-17T22:33:25.693Z,99324.09
2022-11-17T22:35:52.437Z,99324.09
2022-11-17T22:38:19.355Z,99316.78
2022-11-17T22:40:46.017Z,99332.44
2022-11-17T22:43:15.455Z,99325.41
2022-11-17T22:45:42.557Z,99329.06
2022-11-17T22:48:09.550Z,99339.75
2022-11-17T22:50:36.678Z,99338.97
2022-11-17T22:53:03.406Z,99337.41
2022-11-17T22:55:32.608Z,99344.41
2022-11-17T22:57:59.307Z,99346.22
2022-11-17T23:00:26.258Z,99351.94
2022-11-17T23:02:53.130Z,99346.69
2022-11-17T23:05:19.965Z,99352.69
2022-11-17T23:07:46.816Z,99363.13
2022-11-17T23:10:13.600Z,99355.53
2022-11-17T23:12:40.770Z,99363.09
2022-11-17T23:15:08.267Z,99359.69
2022-11-17T23:17:34.999Z,99357.53
2022-11-17T23:20:01.856Z,99353.84
2022-11-17T23:22:28.698Z,99353.06
2022-11-17T23:24:55.347Z,99360.66
2022-11-17T23:27:22.273Z,99359.38
2022-11-17T23:29:48.911Z,99359.88
2022-11-17T23:32:15.757Z,99369.28
2022-11-17T23:34:42.606Z,99367.75
2022-11-17T23:37:09.450Z,99369.84
2022-11-17T23:39:36.330Z,99367.22
2022-11-17T23:42:03.107Z,99360.88
2022-11-17T23:44:30.197Z,99362.66
2022-11-17T23:46:57.145Z,99368.72
2022-11-17T23:49:23.966Z,99364.50
2022-11-17T23:51:50.606Z,99365.03
2022-11-17T23:54:17.620Z,99365.28
2022-11-17T23:56:44.494Z,99371.56
2022-11-17T23:59:11.143Z,99368.72
